Time;durP1;ratioP1;P1;durP2;ratioP2;P2;SDS_P1;SDS_P2;PMS_P1;PMS_P2;Temp;Humidity;BMP_temperature;BMP_pressure;BME280_temperature;BME280_humidity;BME280_pressure;Samples;Min_cycle;Max_cycle;Signal;HPM_P1;HPM_P2
2022/08/24 00:00:17;;;;;;;11.65;8.02;;;;;;;22.99;43.44;100678.38;5022463;28;20472;-67
2022/08/24 00:02:42;;;;;;;12.68;7.25;;;;;;;22.96;43.15;100685.00;5019724;28;20052;-66
2022/08/24 00:05:08;;;;;;;16.13;7.20;;;;;;;22.95;43.60;100687.88;5037219;28;20039;-66
2022/08/24 00:07:33;;;;;;;9.73;7.05;;;;;;;22.91;42.88;100683.81;5019842;28;20139;-67
2022/08/24 00:09:59;;;;;;;12.77;7.95;;;;;;;22.89;43.23;100680.38;5036820;28;20044;-66
2022/08/24 00:12:24;;;;;;;13.98;7.47;;;;;;;22.87;43.12;100686.00;5019272;28;20044;-66
2022/08/24 00:14:49;;;;;;;14.45;8.32;;;;;;;22.86;43.58;100680.72;5019565;28;20403;-68
2022/08/24 00:17:14;;;;;;;17.25;7.70;;;;;;;22.83;43.57;100683.75;5037035;28;20414;-67
2022/08/24 00:19:39;;;;;;;10.63;7.22;;;;;;;22.83;43.17;100684.59;5036588;28;20047;-68
2022/08/24 00:22:04;;;;;;;13.60;8.18;;;;;;;22.80;43.45;100691.22;5036486;28;20052;-66
2022/08/24 00:24:29;;;;;;;14.85;6.93;;;;;;;22.76;43.44;100689.84;5035541;28;20049;-66
2022/08/24 00:26:54;;;;;;;11.63;7.22;;;;;;;22.75;43.53;100698.13;5037328;28;20047;-68
2022/08/24 00:29:20;;;;;;;11.63;7.20;;;;;;;22.71;43.40;100697.59;5040388;28;20048;-66
2022/08/24 00:31:45;;;;;;;11.98;7.13;;;;;;;22.71;43.04;100692.16;5036137;28;20105;-68
2022/08/24 00:34:12;;;;;;;14.38;7.32;;;;;;;22.70;43.56;100689.59;5018912;28;20056;-67
2022/08/24 00:36:36;;;;;;;22.55;9.07;;;;;;;22.68;43.16;100695.22;5001661;28;20048;-68
2022/08/24 00:39:03;;;;;;;10.77;6.18;;;;;;;22.70;42.83;100700.47;5018944;28;20051;-66
2022/08/24 00:41:28;;;;;;;9.20;6.78;;;;;;;22.68;43.50;100689.78;5017166;28;20135;-67
2022/08/24 00:43:57;;;;;;;13.43;7.68;;;;;;;22.67;43.61;100695.38;5036629;28;20402;-66
2022/08/24 00:46:32;;;;;;;10.63;7.40;;;;;;;22.67;45.25;100693.50;5035909;28;20052;-68
2022/08/24 00:49:04;;;;;;;14.65;7.70;;;;;;;22.63;46.49;100700.28;5036085;28;20048;-68
2022/08/24 00:51:42;;;;;;;15.10;7.78;;;;;;;22.56;45.76;100699.22;5037077;28;20054;-72
2022/08/24 00:54:11;;;;;;;15.13;7.15;;;;;;;22.51;46.78;100700.72;5036843;28;20040;-71
2022/08/24 00:56:41;;;;;;;10.43;7.03;;;;;;;22.48;46.39;100690.16;5018601;28;20062;-71
2022/08/24 00:59:14;;;;;;;10.07;7.28;;;;;;;22.46;47.87;100703.91;5018236;28;20044;-70
2022/08/24 01:01:40;;;;;;;14.60;7.25;;;;;;;22.35;47.48;100696.88;5035882;28;20514;-71
2022/08/24 01:04:09;;;;;;;12.25;7.22;;;;;;;22.30;49.24;100698.38;5035480;28;20127;-70
2022/08/24 01:06:34;;;;;;;11.77;7.95;;;;;;;22.23;48.84;100698.16;5001216;28;20047;-71
2022/08/24 01:08:59;;;;;;;17.35;6.88;;;;;;;22.19;47.00;100698.63;5018319;28;20044;-76
2022/08/24 01:11:29;;;;;;;12.50;7.40;;;;;;;22.21;48.72;100708.34;5018620;28;20076;-71
2022/08/24 01:13:55;;;;;;;12.93;7.50;;;;;;;22.17;48.48;100696.06;5017260;28;20109;-72
2022/08/24 01:19:32;;;;;;;10.57;6.90;;;;;;;22.16;48.28;100698.94;5001035;28;20120;-71
2022/08/24 01:22:14;;;;;;;14.43;7.28;;;;;;;22.09;47.23;100696.88;5020923;28;20064;-71
2022/08/24 01:24:39;;;;;;;12.60;7.70;;;;;;;22.01;49.10;100695.94;5034948;28;20037;-73
2022/08/24 01:27:08;;;;;;;11.18;7.63;;;;;;;21.97;48.68;100694.53;5016859;28;20055;-73
2022/08/24 01:29:34;;;;;;;11.38;6.88;;;;;;;21.93;46.85;100687.69;5017420;28;20036;-74
2022/08/24 01:31:59;;;;;;;10.88;7.57;;;;;;;21.91;48.97;100689.72;5016802;28;20044;-73
2022/08/24 01:34:24;;;;;;;13.52;8.40;;;;;;;21.90;49.25;100691.56;5018163;28;20036;-72
2022/08/24 01:36:53;;;;;;;14.73;7.32;;;;;;;21.90;48.28;100701.56;5035939;28;20044;-72
2022/08/24 01:39:25;;;;;;;12.02;6.70;;;;;;;21.90;46.67;100697.00;5017281;28;20052;-71
2022/08/24 01:41:50;;;;;;;11.95;6.60;;;;;;;21.87;46.76;100697.34;5000671;28;20105;-74
2022/08/24 01:44:17;;;;;;;10.98;6.78;;;;;;;21.88;48.54;100699.03;5017173;28;20051;-71
2022/08/24 01:46:47;;;;;;;10.02;6.47;;;;;;;21.88;47.65;100696.34;5017325;28;20044;-71
2022/08/24 01:49:12;;;;;;;11.65;7.43;;;;;;;21.80;48.71;100700.81;5034429;28;20052;-72
2022/08/24 01:51:37;;;;;;;17.67;7.00;;;;;;;21.74;49.19;100691.44;5034880;28;20040;-73
2022/08/24 01:54:04;;;;;;;12.48;7.22;;;;;;;21.70;47.61;100700.91;5035557;28;20044;-72
2022/08/24 01:56:30;;;;;;;10.05;6.70;;;;;;;21.63;47.98;100706.09;5018138;28;20051;-75
2022/08/24 01:58:56;;;;;;;13.85;7.68;;;;;;;21.56;49.38;100698.72;5018045;28;20380;-76
2022/08/24 02:01:20;;;;;;;18.38;8.18;;;;;;;21.49;49.10;100697.63;5018230;28;20054;-75
2022/08/24 02:03:46;;;;;;;7.85;6.07;;;;;;;21.48;47.35;100695.94;5001733;28;20064;-75
2022/08/24 02:06:11;;;;;;;11.93;7.25;;;;;;;21.46;50.61;100701.50;5019189;28;20082;-75
2022/08/24 02:08:36;;;;;;;12.52;7.68;;;;;;;21.42;50.97;100697.41;5039798;28;20047;-73
2022/08/24 02:11:05;;;;;;;10.77;7.30;;;;;;;21.40;51.84;100701.28;5021870;28;20052;-69
2022/08/24 02:13:32;;;;;;;11.88;8.20;;;;;;;21.31;52.30;100703.91;5034762;28;20064;-69
2022/08/24 02:15:56;;;;;;;13.38;8.23;;;;;;;21.28;52.60;100697.94;5016582;28;20080;-67
2022/08/24 02:18:21;;;;;;;12.20;7.40;;;;;;;21.24;52.06;100700.09;5034243;28;20079;-69
2022/08/24 02:20:46;;;;;;;13.07;8.35;;;;;;;21.21;52.39;100700.41;5017596;28;20119;-70
2022/08/24 02:23:13;;;;;;;11.10;7.72;;;;;;;21.18;52.26;100710.66;5000272;28;20040;-71
2022/08/24 02:25:39;;;;;;;10.30;7.28;;;;;;;21.14;52.33;100699.25;5000046;28;20044;-69
2022/08/24 02:28:04;;;;;;;14.48;8.07;;;;;;;21.10;52.57;100705.16;5034131;28;20041;-70
2022/08/24 02:30:30;;;;;;;13.35;8.38;;;;;;;21.06;52.83;100710.03;5034433;28;20058;-70
2022/08/24 02:32:55;;;;;;;10.50;7.30;;;;;;;21.05;53.22;100702.03;4999701;28;20136;-71
2022/08/24 02:35:21;;;;;;;13.00;7.63;;;;;;;21.02;53.39;100705.91;5016533;28;20044;-73
2022/08/24 02:37:46;;;;;;;13.05;7.50;;;;;;;20.98;53.38;100718.91;5016432;28;20032;-71
2022/08/24 02:40:13;;;;;;;13.38;7.85;;;;;;;20.96;53.66;100711.94;5016797;28;20094;-71
2022/08/24 02:42:39;;;;;;;13.77;7.00;;;;;;;20.95;53.62;100712.94;5015943;28;20068;-69
2022/08/24 02:45:04;;;;;;;14.00;8.50;;;;;;;20.92;53.46;100719.50;5017555;28;20040;-66
2022/08/24 02:47:30;;;;;;;10.77;7.93;;;;;;;20.89;53.66;100713.53;5019060;28;20047;-72
2022/08/24 02:49:56;;;;;;;15.68;7.95;;;;;;;20.83;53.68;100711.41;5020076;28;20063;-70
2022/08/24 02:52:21;;;;;;;12.98;7.75;;;;;;;20.78;54.11;100714.56;5037457;28;20051;-71
2022/08/24 02:54:45;;;;;;;12.30;7.55;;;;;;;20.76;54.26;100721.16;5020953;28;20039;-70
2022/08/24 02:57:10;;;;;;;11.52;7.63;;;;;;;20.74;54.76;100717.75;5036889;28;20044;-70
2022/08/24 02:59:35;;;;;;;17.30;8.05;;;;;;;20.73;54.70;100710.59;5032167;28;20437;-69
2022/08/24 03:02:01;;;;;;;11.70;8.25;;;;;;;20.71;55.00;100716.19;5033422;28;20154;-69
2022/08/24 03:04:26;;;;;;;9.90;6.80;;;;;;;20.71;55.20;100718.03;5018676;28;20073;-68
2022/08/24 03:06:51;;;;;;;10.60;7.57;;;;;;;20.72;55.31;100722.44;5005994;28;20064;-71
2022/08/24 03:09:16;;;;;;;11.95;8.30;;;;;;;20.72;55.01;100719.75;5011399;28;20036;-71
2022/08/24 03:11:41;;;;;;;13.25;7.80;;;;;;;20.73;55.08;100724.16;5037960;28;20060;-69
2022/08/24 03:14:07;;;;;;;11.55;8.10;;;;;;;20.75;55.03;100727.59;5023203;28;20112;-70
2022/08/24 03:16:32;;;;;;;16.08;8.18;;;;;;;20.79;55.30;100723.56;5030582;28;20131;-72
2022/08/24 03:18:58;;;;;;;14.45;8.68;;;;;;;20.87;55.22;100729.09;5030306;28;20040;-69
2022/08/24 03:21:25;;;;;;;11.93;7.70;;;;;;;20.97;55.29;100738.03;5037068;28;20046;-70
2022/08/24 03:23:51;;;;;;;10.50;7.72;;;;;;;21.10;54.75;100743.13;5031254;28;20502;-69
2022/08/24 03:26:16;;;;;;;11.13;8.02;;;;;;;21.25;54.20;100738.91;5040412;28;20062;-70
2022/08/24 03:28:41;;;;;;;10.07;7.68;;;;;;;21.43;53.86;100742.53;5034481;28;20135;-69
2022/08/24 03:31:06;;;;;;;16.25;11.27;;;;;;;21.60;53.73;100738.97;5046999;28;20135;-69
2022/08/24 03:33:31;;;;;;;18.08;10.82;;;;;;;21.80;53.32;100736.97;5029821;28;20068;-69
2022/08/24 03:35:56;;;;;;;11.82;8.38;;;;;;;21.99;52.67;100731.41;5035919;28;20129;-69
2022/08/24 03:38:21;;;;;;;12.55;7.85;;;;;;;22.19;52.19;100739.38;5029571;28;20483;-69
2022/08/24 03:40:47;;;;;;;8.77;6.90;;;;;;;22.34;51.64;100737.81;5045000;28;20086;-69
2022/08/24 03:43:44;;;;;;;14.48;7.75;;;;;;;22.54;51.14;100739.31;5036315;28;20040;-70
2022/08/24 03:46:00;;;;;;;14.60;8.00;;;;;;;22.77;50.90;100750.50;5036052;28;20043;-69
2022/08/24 03:48:25;;;;;;;14.95;9.05;;;;;;;22.97;50.54;100741.09;5038714;28;20036;-71
2022/08/24 03:50:50;;;;;;;17.58;7.85;;;;;;;23.16;50.02;100745.41;5030057;28;20052;-69
2022/08/24 03:53:14;;;;;;;12.40;7.78;;;;;;;23.29;49.64;100737.66;5010481;28;20486;-69
2022/08/24 03:55:39;;;;;;;11.40;8.20;;;;;;;23.46;49.17;100746.72;5036320;28;20593;-70
2022/08/24 03:58:04;;;;;;;12.88;7.10;;;;;;;23.61;48.53;100733.34;5011657;28;20118;-69
2022/08/24 04:00:31;;;;;;;13.82;8.02;;;;;;;23.80;48.59;100741.22;5019770;28;20036;-69
2022/08/24 04:02:57;;;;;;;12.35;9.60;;;;;;;23.99;48.08;100750.94;5010273;28;20073;-70
2022/08/24 04:05:23;;;;;;;11.95;9.15;;;;;;;24.14;47.85;100744.66;5036133;28;20139;-69
2022/08/24 04:07:48;;;;;;;14.60;8.88;;;;;;;24.33;47.97;100746.19;5046446;28;20071;-71
2022/08/24 04:10:13;;;;;;;16.27;10.32;;;;;;;24.51;47.63;100752.28;5057101;28;20040;-69
2022/08/24 04:12:39;;;;;;;15.77;8.70;;;;;;;24.58;43.66;100747.88;5039243;28;20052;-71
2022/08/24 04:15:04;;;;;;;12.50;8.23;;;;;;;24.63;47.29;100749.22;5040145;28;20074;-70
2022/08/24 04:17:30;;;;;;;17.13;8.85;;;;;;;24.64;47.31;100749.03;5042655;28;20073;-71
2022/08/24 04:19:58;;;;;;;12.57;8.68;;;;;;;24.61;47.34;100743.91;5038955;28;20411;-71
2022/08/24 04:22:33;;;;;;;16.75;8.05;;;;;;;24.54;47.04;100751.09;5041835;28;20486;-71
2022/08/24 04:24:58;;;;;;;11.95;8.05;;;;;;;24.53;46.85;100752.13;5043434;28;20046;-71
2022/08/24 04:27:25;;;;;;;17.50;8.20;;;;;;;24.59;47.06;100765.94;5038420;28;20164;-71
2022/08/24 04:29:50;;;;;;;17.33;8.60;;;;;;;24.75;46.66;100756.00;5038528;28;20057;-71
2022/08/24 04:32:15;;;;;;;11.02;7.88;;;;;;;25.01;45.54;100756.66;5038868;28;20044;-70
2022/08/24 04:34:42;;;;;;;11.18;8.38;;;;;;;25.45;46.81;100762.44;5038582;28;20052;-70
2022/08/24 04:37:07;;;;;;;21.95;9.02;;;;;;;25.93;45.55;100755.84;5038650;28;20115;-71
2022/08/24 04:39:33;;;;;;;13.95;7.25;;;;;;;26.42;40.78;100755.44;5021787;28;20055;-72
2022/08/24 04:42:30;;;;;;;15.95;7.47;;;;;;;26.90;39.93;100750.50;5037999;28;20159;-71
2022/08/24 04:44:55;;;;;;;20.25;8.93;;;;;;;27.32;41.48;100764.38;5021553;28;20043;-70
2022/08/24 04:47:22;;;;;;;14.07;8.18;;;;;;;27.76;40.66;100750.66;5038346;28;20544;-71
2022/08/24 04:49:47;;;;;;;16.90;8.75;;;;;;;28.06;37.36;100753.25;5021656;28;20135;-70
2022/08/24 04:52:12;;;;;;;14.63;8.70;;;;;;;28.36;37.36;100754.81;5038047;28;20131;-70
2022/08/24 04:54:38;;;;;;;16.70;8.20;;;;;;;28.67;37.93;100750.84;5038024;28;20052;-71
2022/08/24 04:57:17;;;;;;;17.45;9.55;;;;;;;28.87;36.11;100751.84;5017796;28;20494;-72
2022/08/24 04:59:42;;;;;;;15.50;8.45;;;;;;;28.98;34.31;100747.69;5018174;28;20402;-70
2022/08/24 05:02:07;;;;;;;15.18;8.55;;;;;;;29.08;34.34;100754.50;5001167;28;20052;-71
2022/08/24 05:04:33;;;;;;;14.95;8.55;;;;;;;29.23;33.82;100748.88;5017893;28;20407;-71
2022/08/24 05:06:57;;;;;;;17.05;8.52;;;;;;;29.50;34.28;100752.59;5017964;28;20407;-71
2022/08/24 05:09:22;;;;;;;18.95;8.63;;;;;;;29.79;34.51;100757.78;5018370;28;20044;-71
2022/08/24 05:11:47;;;;;;;12.45;8.27;;;;;;;30.09;32.66;100757.44;5002079;28;20044;-71
2022/08/24 05:14:16;;;;;;;17.83;9.38;;;;;;;30.49;32.85;100763.78;5018122;28;20040;-71
2022/08/24 05:16:41;;;;;;;12.50;7.57;;;;;;;30.92;30.89;100755.97;5017979;28;20052;-71
2022/08/24 05:19:06;;;;;;;16.38;9.13;;;;;;;31.24;30.41;100752.28;5035636;28;20039;-70
2022/08/24 05:21:31;;;;;;;11.70;8.02;;;;;;;31.45;30.06;100759.41;5017315;28;20474;-71
2022/08/24 05:23:57;;;;;;;13.00;8.73;;;;;;;31.65;30.43;100757.44;5018824;28;20108;-72
2022/08/24 05:26:26;;;;;;;13.90;8.45;;;;;;;31.90;29.50;100756.66;5024328;28;20508;-72
2022/08/24 05:28:57;;;;;;;11.75;8.13;;;;;;;32.31;28.39;100756.16;5039719;28;20383;-71
2022/08/24 05:31:26;;;;;;;16.63;8.38;;;;;;;32.88;29.00;100760.53;5037679;28;20071;-71
2022/08/24 05:33:52;;;;;;;17.05;8.27;;;;;;;33.39;27.59;100762.97;5037224;28;20044;-72
2022/08/24 05:36:25;;;;;;;15.98;8.45;;;;;;;33.64;26.79;100767.53;5037206;28;20093;-69
2022/08/24 05:38:52;;;;;;;17.17;8.43;;;;;;;33.58;26.18;100758.25;5036793;28;20040;-70
2022/08/24 05:41:18;;;;;;;16.23;8.32;;;;;;;33.33;26.74;100758.34;5055285;28;20036;-71
2022/08/24 05:43:45;;;;;;;14.90;8.35;;;;;;;33.21;26.66;100762.09;5036833;28;20044;-72
2022/08/24 05:46:11;;;;;;;14.55;8.18;;;;;;;33.19;26.48;100762.31;5037433;28;20462;-73
2022/08/24 05:48:37;;;;;;;15.20;9.00;;;;;;;33.33;26.76;100763.88;5036513;28;20044;-72
2022/08/24 05:51:06;;;;;;;20.60;9.35;;;;;;;33.50;25.75;100770.50;5033855;28;20139;-70
2022/08/24 05:53:37;;;;;;;15.73;8.23;;;;;;;33.54;25.73;100766.16;5000204;28;20379;-71
2022/08/24 05:56:04;;;;;;;15.73;9.20;;;;;;;33.82;25.70;100775.84;5013502;28;20049;-70
2022/08/24 05:58:29;;;;;;;19.77;8.27;;;;;;;33.83;25.31;100772.00;4997336;28;20044;-70
2022/08/24 06:00:55;;;;;;;17.13;8.55;;;;;;;34.07;24.37;100765.47;4997434;28;20495;-70
2022/08/24 06:03:20;;;;;;;21.83;9.05;;;;;;;33.84;24.00;100774.53;5015528;28;20479;-71
2022/08/24 06:05:49;;;;;;;22.13;8.30;;;;;;;34.24;23.93;100763.69;5000514;28;20048;-71
2022/08/24 06:08:14;;;;;;;30.38;8.40;;;;;;;34.71;23.07;100758.22;4982967;28;20041;-71
2022/08/24 06:10:42;;;;;;;17.75;7.60;;;;;;;35.49;22.40;100777.19;5016877;28;20483;-70
2022/08/24 06:13:09;;;;;;;19.92;8.27;;;;;;;35.56;21.99;100766.78;4998448;28;20051;-70
2022/08/24 06:15:35;;;;;;;28.20;8.23;;;;;;;35.45;21.90;100764.06;4981446;28;20065;-70
2022/08/24 06:18:00;;;;;;;12.23;7.57;;;;;;;36.08;21.20;100757.56;4996897;28;20041;-70
2022/08/24 06:20:25;;;;;;;13.05;7.35;;;;;;;36.73;20.40;100763.44;4997158;28;20053;-70
2022/08/24 06:22:50;;;;;;;15.20;7.90;;;;;;;36.47;20.84;100764.06;4979624;28;20041;-71
2022/08/24 06:27:58;;;;;;;14.00;6.40;;;;;;;37.63;19.19;100774.16;5034441;28;20045;-71
2022/08/24 06:30:24;;;;;;;12.88;7.20;;;;;;;38.10;19.23;100768.84;5018040;28;20053;-71
2022/08/24 06:33:07;;;;;;;9.77;7.75;;;;;;;38.83;18.50;100772.78;5021219;28;20596;-72
2022/08/24 06:35:38;;;;;;;13.07;6.65;;;;;;;39.09;17.23;100764.63;5028574;28;20566;-70
2022/08/24 06:38:05;;;;;;;13.27;6.35;;;;;;;38.20;17.77;100772.81;5017418;28;20111;-71
2022/08/24 06:40:30;;;;;;;8.88;6.88;;;;;;;37.65;18.73;100769.19;5021088;28;20058;-72
2022/08/24 06:42:54;;;;;;;15.90;6.95;;;;;;;37.46;19.14;100767.81;5004448;28;20040;-71
2022/08/24 06:45:29;;;;;;;13.43;7.50;;;;;;;38.13;19.15;100773.06;5021097;28;20846;-71
2022/08/24 06:47:55;;;;;;;11.00;7.28;;;;;;;38.96;17.96;100767.84;5020251;28;20085;-73
2022/08/24 06:50:20;;;;;;;10.35;7.00;;;;;;;39.70;17.06;100770.50;5036058;28;20120;-71
2022/08/24 06:52:45;;;;;;;18.83;7.20;;;;;;;40.74;16.97;100763.66;5023677;28;20040;-70
2022/08/24 06:55:10;;;;;;;8.95;7.25;;;;;;;41.65;16.15;100777.41;5058696;28;20039;-72
2022/08/24 06:57:35;;;;;;;9.02;6.82;;;;;;;41.78;15.62;100773.09;5040354;28;20047;-71
2022/08/24 07:00:03;;;;;;;12.35;7.15;;;;;;;41.83;15.27;100779.53;5040376;28;20086;-71
2022/08/24 07:02:29;;;;;;;9.80;7.72;;;;;;;42.51;15.28;100775.97;5040328;28;20494;-72
2022/08/24 07:04:53;;;;;;;8.38;7.05;;;;;;;43.44;14.34;100773.59;5058134;28;20050;-72
2022/08/24 07:07:37;;;;;;;8.18;7.28;;;;;;;44.24;14.10;100778.38;5040148;28;20066;-73
2022/08/24 07:10:05;;;;;;;10.98;8.02;;;;;;;44.67;13.21;100787.50;5023251;28;20051;-71
2022/08/24 07:12:30;;;;;;;9.98;7.78;;;;;;;44.37;13.72;100773.94;5039917;28;20097;-70
2022/08/24 07:14:55;;;;;;;13.57;7.20;;;;;;;44.41;13.49;100775.03;5058354;28;20048;-71
2022/08/24 07:17:20;;;;;;;10.38;7.57;;;;;;;44.13;12.56;100769.28;5040372;28;20067;-70
2022/08/24 07:19:45;;;;;;;9.68;7.80;;;;;;;44.33;13.37;100768.09;5040162;28;20047;-71
2022/08/24 07:22:15;;;;;;;9.82;8.50;;;;;;;45.35;12.88;100769.03;5040053;28;20911;-72
2022/08/24 07:24:41;;;;;;;12.20;7.88;;;;;;;46.22;12.07;100777.22;5040139;28;20048;-71
2022/08/24 07:27:06;;;;;;;13.25;8.77;;;;;;;47.10;11.55;100769.00;5039897;28;20044;-70
2022/08/24 07:29:31;;;;;;;10.30;8.55;;;;;;;47.48;10.85;100772.13;5022876;28;20047;-70
2022/08/24 07:31:57;;;;;;;13.88;8.73;;;;;;;47.67;11.00;100769.84;5039899;28;20048;-71
2022/08/24 07:34:32;;;;;;;11.75;9.85;;;;;;;47.90;10.63;100779.03;5023155;28;20525;-71
2022/08/24 07:36:59;;;;;;;9.30;8.50;;;;;;;48.16;10.40;100771.41;5023502;28;20054;-71
2022/08/24 07:39:24;;;;;;;9.65;8.85;;;;;;;48.03;9.82;100769.53;5039843;28;20039;-71
2022/08/24 07:41:49;;;;;;;10.85;8.93;;;;;;;47.75;10.19;100766.19;5039653;28;20044;-70
2022/08/24 07:44:16;;;;;;;9.65;8.65;;;;;;;46.67;10.62;100766.78;5039916;28;20048;-70
2022/08/24 07:46:41;;;;;;;9.75;9.02;;;;;;;46.00;10.74;100760.28;5056582;28;20751;-71
2022/08/24 07:49:09;;;;;;;12.05;7.72;;;;;;;44.69;11.62;100764.69;5021717;28;20499;-70
2022/08/24 07:51:35;;;;;;;8.85;8.02;;;;;;;44.59;12.53;100753.63;5057557;28;20048;-70
2022/08/24 07:54:01;;;;;;;12.50;7.90;;;;;;;45.15;11.77;100756.25;5038752;28;20040;-72
2022/08/24 07:56:33;;;;;;;8.82;8.02;;;;;;;45.45;11.19;100752.75;5039639;28;20044;-71
2022/08/24 07:58:59;;;;;;;12.00;7.68;;;;;;;45.12;11.14;100757.69;5039514;28;20029;-71
2022/08/24 08:01:25;;;;;;;11.50;7.88;;;;;;;44.99;11.10;100749.22;5039406;28;20200;-70
2022/08/24 08:03:51;;;;;;;9.57;7.38;;;;;;;44.89;11.89;100755.03;5022162;28;20039;-72
2022/08/24 08:06:18;;;;;;;8.13;7.43;;;;;;;45.11;11.33;100749.53;5039660;28;20052;-73
2022/08/24 08:08:45;;;;;;;8.15;7.45;;;;;;;45.26;11.10;100752.06;5042976;28;20040;-71
2022/08/24 08:11:10;;;;;;;10.60;9.48;;;;;;;45.33;11.45;100754.44;5039176;28;20055;-71
2022/08/24 08:13:38;;;;;;;8.75;7.00;;;;;;;45.34;10.79;100754.13;5038374;28;20040;-71
2022/08/24 08:16:04;;;;;;;12.50;8.10;;;;;;;44.65;11.54;100758.00;5057210;28;20122;-69
2022/08/24 08:18:30;;;;;;;8.77;7.10;;;;;;;44.75;11.93;100743.78;5035357;28;20040;-71
2022/08/24 08:21:02;;;;;;;8.98;7.28;;;;;;;45.56;10.58;100744.94;5002755;28;20044;-70
2022/08/24 08:26:19;;;;;;;12.57;8.38;;;;;;;45.48;10.56;100749.31;5018263;28;20058;-71
2022/08/24 08:29:18;;;;;;;8.20;7.50;;;;;;;45.23;10.56;100749.88;4936097;28;20058;-72
2022/08/24 08:31:43;;;;;;;9.90;8.30;;;;;;;46.17;10.38;100746.31;4920315;28;20050;-72
2022/08/24 08:34:09;;;;;;;13.00;8.63;;;;;;;47.11;9.90;100750.91;4936424;28;20050;-71
2022/08/24 08:36:39;;;;;;;11.68;9.65;;;;;;;47.92;9.14;100743.59;4936298;28;20050;-72
2022/08/24 08:39:06;;;;;;;10.57;9.63;;;;;;;49.07;8.53;100744.72;4936379;28;20109;-71
2022/08/24 08:41:43;;;;;;;12.60;11.23;;;;;;;49.98;8.32;100749.66;4936253;28;20097;-71
2022/08/24 08:44:36;;;;;;;12.10;11.05;;;;;;;50.19;7.88;100749.63;4904488;28;20055;-73
2022/08/24 08:47:26;;;;;;;13.65;12.32;;;;;;;51.30;7.73;100752.38;4888372;28;20051;-71
2022/08/24 08:50:05;;;;;;;13.98;12.65;;;;;;;51.41;7.18;100752.72;4925223;28;20435;-71
2022/08/24 08:52:41;;;;;;;15.43;14.02;;;;;;;52.20;6.76;100749.06;4916769;29;20059;-71
2022/08/24 08:55:25;;;;;;;17.67;16.63;;;;;;;52.51;5.78;100745.47;4916479;28;20139;-71
2022/08/24 08:58:07;;;;;;;17.00;15.60;;;;;;;52.26;6.44;100751.69;4916762;29;20111;-72
2022/08/24 09:00:54;;;;;;;17.52;16.00;;;;;;;51.69;6.70;100747.97;4916295;28;20066;-72
2022/08/24 09:03:38;;;;;;;14.88;13.70;;;;;;;51.29;7.15;100747.88;4916442;29;20051;-70
2022/08/24 09:06:35;;;;;;;;;;;;;;;52.17;6.52;100749.78;4995207;28;20051;-72
2022/08/24 09:09:18;;;;;;;18.65;17.05;;;;;;;51.40;6.70;100746.19;4998261;28;19944;-69
2022/08/24 09:12:08;;;;;;;18.50;17.27;;;;;;;51.49;6.76;100738.34;4981757;28;20073;-69
2022/08/24 09:14:51;;;;;;;19.92;18.30;;;;;;;52.22;7.09;100743.88;4981962;28;20045;-70
2022/08/24 09:17:37;;;;;;;18.40;17.08;;;;;;;52.32;6.47;100741.69;4998111;28;20071;-71
2022/08/24 09:20:30;;;;;;;19.05;17.48;;;;;;;52.13;6.63;100736.66;4998163;28;20114;-71
2022/08/24 09:23:15;;;;;;;;;;;;;;;52.81;6.58;100730.84;5016393;28;20076;-71
2022/08/24 09:25:58;;;;;;;19.25;17.90;;;;;;;51.71;7.07;100734.19;4998225;28;19917;-70
2022/08/24 09:28:42;;;;;;;14.98;13.82;;;;;;;50.63;7.72;100722.47;5015812;28;20044;-70
2022/08/24 09:31:21;;;;;;;15.80;14.57;;;;;;;50.21;8.14;100720.94;4997846;28;20124;-71
2022/08/24 09:34:07;;;;;;;15.25;14.20;;;;;;;50.15;7.96;100721.09;4997668;28;20060;-71
2022/08/24 09:36:38;;;;;;;16.52;15.48;;;;;;;49.80;7.58;100716.91;4997647;28;20186;-70
2022/08/24 09:39:25;;;;;;;15.05;13.80;;;;;;;49.94;7.21;100710.97;4998089;28;20052;-71
2022/08/24 09:42:20;;;;;;;17.70;15.98;;;;;;;51.42;6.90;100725.94;4981236;28;20055;-70
2022/08/24 09:45:20;;;;;;;19.60;15.13;;;;;;;51.97;6.65;100724.41;4997507;28;20530;-70
2022/08/24 09:48:19;;;;;;;16.23;14.95;;;;;;;51.50;6.93;100730.66;5015579;28;20202;-74
2022/08/24 09:50:53;;;;;;;15.30;14.30;;;;;;;50.70;6.61;100717.03;5015327;28;20072;-71
2022/08/24 09:53:36;;;;;;;16.05;14.80;;;;;;;51.07;6.50;100723.59;5015491;28;20078;-71
2022/08/24 09:56:23;;;;;;;16.95;15.60;;;;;;;49.51;6.63;100712.16;4997903;28;20048;-73
2022/08/24 09:59:04;;;;;;;12.90;11.75;;;;;;;47.25;7.86;100712.91;5015612;28;20041;-70
2022/08/24 10:01:38;;;;;;;14.23;10.25;;;;;;;46.18;8.46;100712.16;4981591;28;20086;-71
2022/08/24 10:04:32;;;;;;;9.55;8.75;;;;;;;45.62;8.82;100703.38;4997767;28;20049;-72
2022/08/24 10:07:13;;;;;;;9.95;8.93;;;;;;;44.56;9.61;100689.53;4989304;28;20118;-70
2022/08/24 10:09:47;;;;;;;9.63;7.80;;;;;;;44.50;9.67;100695.25;4981769;28;20051;-72
2022/08/24 10:13:02;;;;;;;8.90;6.70;;;;;;;45.14;9.14;100698.25;5015267;28;20051;-71
2022/08/24 10:15:49;;;;;;;8.15;6.90;;;;;;;44.53;9.37;100698.59;4958649;28;20054;-70
2022/08/24 10:18:42;;;;;;;8.77;6.68;;;;;;;44.08;9.59;100687.84;4940903;28;20038;-70
2022/08/24 10:21:39;;;;;;;7.28;6.35;;;;;;;41.78;11.16;100695.50;4958241;28;20493;-71
2022/08/24 10:24:58;;;;;;;8.55;6.00;;;;;;;39.76;12.53;100685.63;4956090;28;20050;-70
2022/08/24 10:27:41;;;;;;;9.70;5.28;;;;;;;38.49;13.40;100690.59;4863031;29;20055;-71
2022/08/24 10:30:34;;;;;;;7.68;5.60;;;;;;;37.53;14.20;100673.84;4878012;29;20043;-70
2022/08/24 10:33:10;;;;;;;8.70;4.65;;;;;;;36.66;14.89;100673.81;4885369;29;20055;-70
2022/08/24 10:36:06;;;;;;;8.68;4.55;;;;;;;36.32;14.53;100678.59;4884631;29;20078;-71
2022/08/24 10:42:09;;;;;;;12.43;4.90;;;;;;;34.63;16.02;100669.94;4881399;29;20051;-71
2022/08/24 10:45:13;;;;;;;6.35;5.00;;;;;;;34.13;16.84;100664.00;4825424;29;20249;-71
2022/08/24 10:48:06;;;;;;;8.85;5.07;;;;;;;33.72;17.35;100664.88;4789231;29;20054;-73
2022/08/24 10:50:56;;;;;;;5.50;4.10;;;;;;;33.44;17.34;100668.25;4731211;30;20139;-71
2022/08/24 10:53:24;;;;;;;9.40;4.75;;;;;;;33.09;18.03;100657.00;4753594;29;20185;-70
2022/08/24 10:56:02;;;;;;;9.82;4.85;;;;;;;32.78;18.56;100649.75;4754169;30;20051;-70
2022/08/24 10:58:36;;;;;;;5.38;4.28;;;;;;;32.76;17.96;100658.25;4751455;30;20066;-69
2022/08/24 11:01:22;;;;;;;9.68;5.13;;;;;;;32.47;18.60;100651.56;4775281;29;20082;-69
2022/08/24 11:04:11;;;;;;;7.75;4.43;;;;;;;32.62;17.69;100650.34;4803146;29;20060;-68
2022/08/24 11:07:15;;;;;;;9.65;4.18;;;;;;;32.25;18.03;100644.78;4785899;29;20385;-69
2022/08/24 11:09:52;;;;;;;10.60;4.80;;;;;;;31.87;18.73;100657.78;4803189;29;20181;-69
2022/08/24 11:12:26;;;;;;;5.13;4.00;;;;;;;32.04;18.57;100646.00;4803164;29;20073;-70
2022/08/24 11:14:52;;;;;;;6.47;4.60;;;;;;;31.75;18.70;100647.50;4802957;29;20423;-68
2022/08/24 11:17:21;;;;;;;13.43;5.25;;;;;;;31.62;18.95;100650.31;4788318;29;20062;-71
2022/08/24 11:19:47;;;;;;;8.02;4.47;;;;;;;31.42;19.52;100637.72;4803409;29;20145;-70
2022/08/24 11:22:40;;;;;;;7.18;4.07;;;;;;;31.31;19.37;100631.84;4831186;29;20575;-70
2022/08/24 11:25:58;;;;;;;6.85;4.22;;;;;;;31.43;19.65;100644.94;4876159;29;20051;-69
2022/08/24 11:28:32;;;;;;;7.63;4.38;;;;;;;31.24;19.89;100638.47;4957484;28;20049;-69
2022/08/24 11:30:57;;;;;;;7.20;4.32;;;;;;;31.26;19.76;100634.44;4944169;28;20050;-70
2022/08/24 11:33:31;;;;;;;11.57;4.72;;;;;;;31.16;20.20;100631.28;4976504;28;20137;-69
2022/08/24 11:35:59;;;;;;;12.15;4.30;;;;;;;31.04;20.40;100620.09;4977412;28;20137;-65
2022/08/24 11:38:27;;;;;;;5.25;4.15;;;;;;;31.10;20.85;100625.81;4978721;28;20079;-66
2022/08/24 11:41:01;;;;;;;12.10;4.68;;;;;;;31.19;20.83;100628.09;4979744;28;20072;-64
2022/08/24 11:43:34;;;;;;;9.82;4.80;;;;;;;31.24;20.12;100621.94;4979476;28;20054;-65
2022/08/24 11:46:02;;;;;;;8.10;4.10;;;;;;;31.13;20.69;100623.50;4978036;28;20041;-66
2022/08/24 11:48:47;;;;;;;9.85;5.15;;;;;;;31.00;21.07;100629.03;4961996;28;20714;-65